Private Wetterstation Sandau
Wetterdaten: Samstag, 16.03.2013
Datum Zeit Temp. A. Feuchte A. Luftdruck Regen Wind Richtung Richtung Taupunkt Windchill
16.03.2013 00:01 -6,2 C 81 % 1018,5 hPa 0,0 l/m 3,2 km/h (1 Bft) S-SO 157 -8,9 C -6,2 C
16.03.2013 00:06 -6,2 C 81 % 1018,6 hPa 0,0 l/m 1,8 km/h (1 Bft) SO 135 -8,9 C -6,2 C
16.03.2013 00:11 -6,2 C 81 % 1018,6 hPa 0,0 l/m 0,0 km/h (0 Bft) S-SO 157 -8,9 C -6,2 C
16.03.2013 00:16 -6,4 C 81 % 1018,5 hPa 0,0 l/m 2,5 km/h (1 Bft) O-SO 112 -9,1 C -6,4 C
16.03.2013 00:21 -6,5 C 81 % 1018,6 hPa 0,0 l/m 0,0 km/h (0 Bft) SO 135 -9,2 C -6,5 C
16.03.2013 00:26 -6,7 C 81 % 1018,7 hPa 0,0 l/m 0,0 km/h (0 Bft) SO 135 -9,4 C -6,7 C
16.03.2013 00:31 -6,8 C 81 % 1018,8 hPa 0,0 l/m 0,0 km/h (0 Bft) SO 135 -9,5 C -6,8 C
16.03.2013 00:36 -6,8 C 81 % 1018,6 hPa 0,0 l/m 0,0 km/h (0 Bft) SO 135 -9,5 C -6,8 C
16.03.2013 00:41 -6,9 C 81 % 1018,8 hPa 0,0 l/m 0,0 km/h (0 Bft) SO 135 -9,6 C -6,9 C
16.03.2013 00:46 -6,9 C 81 % 1018,7 hPa 0,0 l/m 1,4 km/h (1 Bft) SO 135 -9,6 C -6,9 C
16.03.2013 00:51 -7,0 C 81 % 1018,8 hPa 0,0 l/m 0,0 km/h (0 Bft) SO 135 -9,7 C -7,0 C
16.03.2013 00:56 -7,1 C 82 % 1018,7 hPa 0,0 l/m 1,1 km/h (1 Bft) SO 135 -9,6 C -7,1 C
16.03.2013 01:01 -7,1 C 82 % 1018,8 hPa 0,0 l/m 1,4 km/h (1 Bft) SO 135 -9,6 C -7,1 C
16.03.2013 01:06 -7,2 C 82 % 1018,9 hPa 0,0 l/m 2,2 km/h (1 Bft) S-SO 157 -9,7 C -7,2 C
16.03.2013 01:11 -7,2 C 82 % 1018,9 hPa 0,0 l/m 0,0 km/h (0 Bft) S-SO 157 -9,7 C -7,2 C
16.03.2013 01:16 -7,3 C 82 % 1018,7 hPa 0,0 l/m 2,2 km/h (1 Bft) S-SO 157 -9,8 C -7,3 C
16.03.2013 01:21 -7,4 C 82 % 1018,9 hPa 0,0 l/m 0,0 km/h (0 Bft) S-SO 157 -9,9 C -7,4 C
16.03.2013 01:26 -7,4 C 82 % 1018,9 hPa 0,0 l/m 2,5 km/h (1 Bft) S-SO 157 -9,9 C -7,4 C
16.03.2013 01:31 -7,4 C 82 % 1018,9 hPa 0,0 l/m 2,5 km/h (1 Bft) S 180 -9,9 C -7,4 C
16.03.2013 01:36 -7,3 C 83 % 1018,9 hPa 0,0 l/m 0,0 km/h (0 Bft) S-SO 157 -9,7 C -7,3 C
16.03.2013 01:41 -7,2 C 83 % 1018,8 hPa 0,0 l/m 1,1 km/h (1 Bft) S-SO 157 -9,6 C -7,2 C
16.03.2013 01:46 -7,2 C 83 % 1018,9 hPa 0,0 l/m 1,1 km/h (1 Bft) S-SO 157 -9,6 C -7,2 C
16.03.2013 01:51 -7,3 C 83 % 1019,0 hPa 0,0 l/m 0,0 km/h (0 Bft) SO 135 -9,7 C -7,3 C
16.03.2013 01:56 -7,5 C 83 % 1018,8 hPa 0,0 l/m 0,0 km/h (0 Bft) SO 135 -9,9 C -7,5 C
16.03.2013 02:01 -7,6 C 83 % 1018,9 hPa 0,0 l/m 0,0 km/h (0 Bft) SO 135 -10,0 C -7,6 C
16.03.2013 02:06 -7,8 C 82 % 1018,9 hPa 0,0 l/m 0,0 km/h (0 Bft) SO 135 -10,3 C -7,8 C
16.03.2013 02:11 -7,9 C 82 % 1018,7 hPa 0,0 l/m 2,2 km/h (1 Bft) SO 135 -10,4 C -7,9 C
16.03.2013 02:16 -8,0 C 83 % 1018,7 hPa 0,0 l/m 0,0 km/h (0 Bft) SO 135 -10,4 C -8,0 C
16.03.2013 02:21 -8,1 C 83 % 1018,7 hPa 0,0 l/m 0,0 km/h (0 Bft) SO 135 -10,5 C -8,1 C
16.03.2013 02:26 -8,1 C 83 % 1018,6 hPa 0,0 l/m 0,0 km/h (0 Bft) SO 135 -10,5 C -8,1 C
16.03.2013 02:31 -8,1 C 83 % 1018,7 hPa 0,0 l/m 2,5 km/h (1 Bft) SO 135 -10,5 C -8,1 C
16.03.2013 02:36 -8,1 C 83 % 1018,8 hPa 0,0 l/m 3,2 km/h (1 Bft) SO 135 -10,5 C -8,1 C
16.03.2013 02:41 -8,1 C 83 % 1018,6 hPa 0,0 l/m 0,0 km/h (0 Bft) S-SO 157 -10,5 C -8,1 C
16.03.2013 02:46 -8,2 C 83 % 1018,7 hPa 0,0 l/m 0,0 km/h (0 Bft) O-SO 112 -10,6 C -8,2 C
16.03.2013 02:51 -8,2 C 83 % 1018,7 hPa 0,0 l/m 0,0 km/h (0 Bft) SO 135 -10,6 C -8,2 C
16.03.2013 02:56 -8,2 C 83 % 1018,8 hPa 0,0 l/m 0,0 km/h (0 Bft) SO 135 -10,6 C -8,2 C
16.03.2013 03:01 -8,2 C 83 % 1018,7 hPa 0,0 l/m 0,0 km/h (0 Bft) O-SO 112 -10,6 C -8,2 C
16.03.2013 03:06 -8,2 C 83 % 1018,7 hPa 0,0 l/m 0,0 km/h (0 Bft) SO 135 -10,6 C -8,2 C
16.03.2013 03:11 -8,3 C 83 % 1018,7 hPa 0,0 l/m 0,0 km/h (0 Bft) SO 135 -10,7 C -8,3 C
16.03.2013 03:16 -8,4 C 83 % 1018,7 hPa 0,0 l/m 1,1 km/h (1 Bft) SO 135 -10,8 C -8,4 C
16.03.2013 03:21 -8,4 C 83 % 1018,6 hPa 0,0 l/m 0,0 km/h (0 Bft) O-SO 112 -10,8 C -8,4 C
16.03.2013 03:26 -8,4 C 84 % 1018,6 hPa 0,0 l/m 4,0 km/h (1 Bft) SO 135 -10,6 C -8,4 C
16.03.2013 03:31 -8,4 C 84 % 1018,6 hPa 0,0 l/m 0,0 km/h (0 Bft) SO 135 -10,6 C -8,4 C
16.03.2013 03:36 -8,5 C 84 % 1018,5 hPa 0,0 l/m 2,5 km/h (1 Bft) O-SO 112 -10,7 C -8,5 C
16.03.2013 03:41 -8,6 C 84 % 1018,5 hPa 0,0 l/m 3,2 km/h (1 Bft) SO 135 -10,8 C -8,6 C
16.03.2013 03:46 -8,7 C 84 % 1018,6 hPa 0,0 l/m 0,0 km/h (0 Bft) O-SO 112 -10,9 C -8,7 C
16.03.2013 03:51 -8,7 C 84 % 1018,7 hPa 0,0 l/m 0,0 km/h (0 Bft) O-SO 112 -10,9 C -8,7 C
16.03.2013 03:56 -8,8 C 84 % 1018,7 hPa 0,0 l/m 0,0 km/h (0 Bft) SO 135 -11,0 C -8,8 C
16.03.2013 04:01 -8,9 C 84 % 1018,5 hPa 0,0 l/m 3,6 km/h (1 Bft) O-SO 112 -11,1 C -8,9 C
16.03.2013 04:06 -8,9 C 84 % 1018,5 hPa 0,0 l/m 0,0 km/h (0 Bft) SO 135 -11,1 C -8,9 C
16.03.2013 04:11 -8,9 C 84 % 1018,5 hPa 0,0 l/m 0,0 km/h (0 Bft) SO 135 -11,1 C -8,9 C
16.03.2013 04:16 -8,9 C 84 % 1018,6 hPa 0,0 l/m 0,0 km/h (0 Bft) O-SO 112 -11,1 C -8,9 C
16.03.2013 04:21 -8,8 C 85 % 1018,5 hPa 0,0 l/m 1,4 km/h (1 Bft) SO 135 -10,9 C -8,8 C
16.03.2013 04:26 -8,8 C 85 % 1018,6 hPa 0,0 l/m 3,2 km/h (1 Bft) SO 135 -10,9 C -8,8 C
16.03.2013 04:31 -8,9 C 85 % 1018,6 hPa 0,0 l/m 2,9 km/h (1 Bft) O-SO 112 -10,9 C -8,9 C
16.03.2013 04:36 -8,9 C 85 % 1018,5 hPa 0,0 l/m 3,6 km/h (1 Bft) SO 135 -10,9 C -8,9 C
16.03.2013 04:41 -9,1 C 85 % 1018,5 hPa 0,0 l/m 0,0 km/h (0 Bft) SO 135 -11,1 C -9,1 C
16.03.2013 04:46 -9,2 C 85 % 1018,5 hPa 0,0 l/m 2,9 km/h (1 Bft) SO 135 -11,2 C -9,2 C
16.03.2013 04:51 -9,4 C 85 % 1018,6 hPa 0,0 l/m 2,5 km/h (1 Bft) SO 135 -11,4 C -9,4 C
16.03.2013 04:56 -9,4 C 85 % 1018,6 hPa 0,0 l/m 0,0 km/h (0 Bft) SO 135 -11,4 C -9,4 C
16.03.2013 05:01 -9,4 C 85 % 1018,7 hPa 0,0 l/m 0,0 km/h (0 Bft) SO 135 -11,4 C -9,4 C
16.03.2013 05:06 -9,4 C 85 % 1018,7 hPa 0,0 l/m 3,2 km/h (1 Bft) SO 135 -11,4 C -9,4 C
16.03.2013 05:11 -9,3 C 85 % 1018,5 hPa 0,0 l/m 3,2 km/h (1 Bft) SO 135 -11,3 C -9,3 C
16.03.2013 05:16 -9,3 C 85 % 1018,6 hPa 0,0 l/m 1,4 km/h (1 Bft) SO 135 -11,3 C -9,3 C
16.03.2013 05:21 -9,3 C 85 % 1018,5 hPa 0,0 l/m 3,6 km/h (1 Bft) SO 135 -11,3 C -9,3 C
16.03.2013 05:26 -9,3 C 85 % 1018,6 hPa 0,0 l/m 0,0 km/h (0 Bft) SO 135 -11,3 C -9,3 C
16.03.2013 05:31 -9,3 C 85 % 1018,6 hPa 0,0 l/m 1,4 km/h (1 Bft) SO 135 -11,3 C -9,3 C
16.03.2013 05:36 -9,3 C 85 % 1018,7 hPa 0,0 l/m 0,0 km/h (0 Bft) SO 135 -11,3 C -9,3 C
16.03.2013 05:41 -9,3 C 85 % 1018,6 hPa 0,0 l/m 6,1 km/h (2 Bft) O-SO 112 -11,3 C -12,8 C
16.03.2013 05:46 -9,3 C 85 % 1018,6 hPa 0,0 l/m 4,3 km/h (1 Bft) SO 135 -11,3 C -9,3 C
16.03.2013 05:51 -9,4 C 85 % 1018,7 hPa 0,0 l/m 5,8 km/h (2 Bft) O-SO 112 -11,4 C -12,7 C
16.03.2013 05:56 -9,5 C 85 % 1018,7 hPa 0,0 l/m 3,6 km/h (1 Bft) O-SO 112 -11,5 C -9,5 C
16.03.2013 06:01 -9,5 C 85 % 1018,6 hPa 0,0 l/m 3,6 km/h (1 Bft) SO 135 -11,5 C -9,5 C
16.03.2013 06:06 -9,5 C 85 % 1018,6 hPa 0,0 l/m 4,3 km/h (1 Bft) O-SO 112 -11,5 C -9,5 C
16.03.2013 06:11 -9,5 C 85 % 1018,7 hPa 0,0 l/m 1,4 km/h (1 Bft) SO 135 -11,5 C -9,5 C
16.03.2013 06:16 -9,5 C 85 % 1018,7 hPa 0,0 l/m 3,6 km/h (1 Bft) SO 135 -11,5 C -9,5 C
16.03.2013 06:21 -9,5 C 85 % 1018,8 hPa 0,0 l/m 5,0 km/h (1 Bft) S-SO 157 -11,5 C -12,4 C
16.03.2013 06:26 -9,4 C 85 % 1018,9 hPa 0,0 l/m 3,6 km/h (1 Bft) SO 135 -11,4 C -9,4 C
16.03.2013 06:31 -9,3 C 85 % 1018,9 hPa 0,0 l/m 0,0 km/h (0 Bft) O 90 -11,3 C -9,3 C
16.03.2013 06:36 -9,2 C 85 % 1018,9 hPa 0,0 l/m 5,4 km/h (1 Bft) SO 135 -11,2 C -12,3 C
16.03.2013 06:41 -9,2 C 85 % 1018,9 hPa 0,0 l/m 3,2 km/h (1 Bft) SO 135 -11,2 C -9,2 C
16.03.2013 06:46 -9,1 C 85 % 1019,0 hPa 0,0 l/m 1,4 km/h (1 Bft) O-SO 112 -11,1 C -9,1 C
16.03.2013 06:51 -9,0 C 85 % 1019,0 hPa 0,0 l/m 0,0 km/h (0 Bft) O-SO 112 -11,0 C -9,0 C
16.03.2013 06:56 -8,9 C 85 % 1019,0 hPa 0,0 l/m 3,6 km/h (1 Bft) SO 135 -10,9 C -8,9 C
16.03.2013 07:01 -8,8 C 85 % 1018,8 hPa 0,0 l/m 0,0 km/h (0 Bft) O-SO 112 -10,9 C -8,8 C
16.03.2013 07:06 -8,7 C 85 % 1018,8 hPa 0,0 l/m 0,0 km/h (0 Bft) SO 135 -10,8 C -8,7 C
16.03.2013 07:11 -8,7 C 85 % 1018,8 hPa 0,0 l/m 2,5 km/h (1 Bft) SO 135 -10,8 C -8,7 C
16.03.2013 07:16 -8,6 C 85 % 1018,9 hPa 0,0 l/m 0,0 km/h (0 Bft) SO 135 -10,7 C -8,6 C
16.03.2013 07:21 -8,4 C 84 % 1019,1 hPa 0,0 l/m 0,0 km/h (0 Bft) O 90 -10,6 C -8,4 C
16.03.2013 07:26 -8,2 C 84 % 1019,0 hPa 0,0 l/m 5,0 km/h (1 Bft) O-SO 112 -10,4 C -10,9 C
16.03.2013 07:31 -8,1 C 84 % 1019,0 hPa 0,0 l/m 3,6 km/h (1 Bft) SO 135 -10,3 C -8,1 C
16.03.2013 07:36 -7,8 C 84 % 1018,9 hPa 0,0 l/m 2,2 km/h (1 Bft) SO 135 -10,0 C -7,8 C
16.03.2013 07:41 -7,6 C 84 % 1019,0 hPa 0,0 l/m 5,0 km/h (1 Bft) O-SO 112 -9,8 C -10,2 C
16.03.2013 07:46 -7,4 C 84 % 1019,1 hPa 0,0 l/m 5,0 km/h (1 Bft) O-SO 112 -9,6 C -10,0 C
16.03.2013 07:51 -7,2 C 83 % 1019,1 hPa 0,0 l/m 4,0 km/h (1 Bft) SO 135 -9,6 C -7,2 C
16.03.2013 07:56 -7,0 C 83 % 1019,0 hPa 0,0 l/m 4,7 km/h (1 Bft) O 90 -9,4 C -9,4 C
16.03.2013 08:01 -6,9 C 83 % 1018,7 hPa 0,0 l/m 7,6 km/h (2 Bft) O-SO 112 -9,3 C -10,7 C
16.03.2013 08:06 -6,7 C 82 % 1018,8 hPa 0,0 l/m 4,0 km/h (1 Bft) SO 135 -9,2 C -6,7 C
16.03.2013 08:11 -6,5 C 82 % 1018,9 hPa 0,0 l/m 5,8 km/h (2 Bft) SO 135 -9,0 C -9,4 C
16.03.2013 08:16 -6,2 C 82 % 1019,0 hPa 0,0 l/m 6,1 km/h (2 Bft) SO 135 -8,8 C -9,2 C
16.03.2013 08:21 -6,1 C 82 % 1019,0 hPa 0,0 l/m 4,0 km/h (1 Bft) O-SO 112 -8,7 C -6,1 C
16.03.2013 08:26 -5,9 C 81 % 1018,9 hPa 0,0 l/m 6,5 km/h (2 Bft) O 90 -8,6 C -9,0 C
16.03.2013 08:31 -5,7 C 81 % 1019,1 hPa 0,0 l/m 10,4 km/h (2 Bft) SO 135 -8,4 C -10,2 C
16.03.2013 08:36 -5,6 C 80 % 1018,9 hPa 0,0 l/m 7,6 km/h (2 Bft) O-SO 112 -8,5 C -9,2 C
16.03.2013 08:41 -5,4 C 80 % 1018,9 hPa 0,0 l/m 5,4 km/h (1 Bft) O 90 -8,3 C -7,9 C
16.03.2013 08:46 -5,2 C 80 % 1019,1 hPa 0,0 l/m 7,9 km/h (2 Bft) O-SO 112 -8,1 C -8,8 C
16.03.2013 08:51 -5,1 C 79 % 1018,9 hPa 0,0 l/m 8,3 km/h (2 Bft) O-SO 112 -8,2 C -8,8 C
16.03.2013 08:56 -4,8 C 79 % 1019,0 hPa 0,0 l/m 4,3 km/h (1 Bft) O-SO 112 -7,9 C -4,8 C
16.03.2013 09:01 -4,6 C 79 % 1019,0 hPa 0,0 l/m 5,0 km/h (1 Bft) O 90 -7,7 C -6,8 C
16.03.2013 09:06 -4,2 C 78 % 1018,9 hPa 0,0 l/m 7,2 km/h (2 Bft) O-SO 112 -7,4 C -7,4 C
16.03.2013 09:11 -4,1 C 78 % 1018,8 hPa 0,0 l/m 7,9 km/h (2 Bft) SO 135 -7,4 C -7,5 C
16.03.2013 09:16 -3,8 C 77 % 1018,9 hPa 0,0 l/m 0,0 km/h (0 Bft) O-NO 67 -7,2 C -3,8 C
16.03.2013 09:21 -3,5 C 77 % 1018,9 hPa 0,0 l/m 6,5 km/h (2 Bft) S-SO 157 -6,9 C -6,3 C
16.03.2013 09:26 -3,1 C 76 % 1019,0 hPa 0,0 l/m 2,2 km/h (1 Bft) SO 135 -6,7 C -3,1 C
16.03.2013 09:31 -2,7 C 75 % 1019,1 hPa 0,0 l/m 3,2 km/h (1 Bft) O 90 -6,5 C -2,7 C
16.03.2013 09:36 -2,4 C 74 % 1018,9 hPa 0,0 l/m 7,2 km/h (2 Bft) SO 135 -6,4 C -5,3 C
16.03.2013 09:41 -2,1 C 74 % 1019,0 hPa 0,0 l/m 8,6 km/h (2 Bft) SO 135 -6,1 C -5,4 C
16.03.2013 09:46 -1,6 C 70 % 1018,9 hPa 0,0 l/m 2,5 km/h (1 Bft) S-SW 202 -6,3 C -1,6 C
16.03.2013 09:51 -1,2 C 69 % 1018,9 hPa 0,0 l/m 7,2 km/h (2 Bft) S-SO 157 -6,1 C -3,9 C
16.03.2013 09:56 -0,9 C 66 % 1018,7 hPa 0,0 l/m 7,2 km/h (2 Bft) SO 135 -6,4 C -3,5 C
16.03.2013 10:01 -0,6 C 65 % 1018,6 hPa 0,0 l/m 8,3 km/h (2 Bft) O 90 -6,3 C -3,5 C
16.03.2013 10:06 -0,4 C 63 % 1018,6 hPa 0,0 l/m 8,6 km/h (2 Bft) SO 135 -6,6 C -3,4 C
16.03.2013 10:11 -0,1 C 62 % 1018,8 hPa 0,0 l/m 16,9 km/h (3 Bft) S-SO 157 -6,5 C -4,9 C
16.03.2013 10:16 0,2 C 60 % 1018,8 hPa 0,0 l/m 8,3 km/h (2 Bft) SO 135 -6,6 C -2,6 C
16.03.2013 10:21 0,6 C 60 % 1018,8 hPa 0,0 l/m 6,5 km/h (2 Bft) SO 135 -6,3 C -1,5 C
16.03.2013 10:26 0,9 C 59 % 1018,6 hPa 0,0 l/m 9,7 km/h (2 Bft) W-SW 247 -6,2 C -2,2 C
16.03.2013 10:31 1,1 C 57 % 1018,7 hPa 0,0 l/m 2,9 km/h (1 Bft) S-SO 157 -6,4 C 1,1 C
16.03.2013 10:36 1,3 C 57 % 1018,6 hPa 0,0 l/m 2,5 km/h (1 Bft) S 180 -6,3 C 1,3 C
16.03.2013 10:41 1,3 C 56 % 1018,6 hPa 0,0 l/m 9,7 km/h (2 Bft) S-SO 157 -6,5 C -1,7 C
16.03.2013 10:46 1,8 C 56 % 1018,6 hPa 0,0 l/m 11,9 km/h (2 Bft) S-SO 157 -6,0 C -1,6 C
16.03.2013 10:51 2,1 C 56 % 1018,5 hPa 0,0 l/m 6,5 km/h (2 Bft) S-SO 157 -5,7 C 0,2 C
16.03.2013 10:56 2,4 C 56 % 1018,4 hPa 0,0 l/m 5,0 km/h (1 Bft) S-SO 157 -5,5 C 1,1 C
16.03.2013 11:01 2,5 C 54 % 1018,3 hPa 0,0 l/m 10,4 km/h (2 Bft) S-SO 157 -5,8 C -0,4 C
16.03.2013 11:06 2,6 C 54 % 1018,3 hPa 0,0 l/m 5,4 km/h (1 Bft) S-SO 157 -5,8 C 1,2 C
16.03.2013 11:11 2,7 C 53 % 1018,4 hPa 0,0 l/m 10,8 km/h (2 Bft) SO 135 -5,9 C -0,3 C
16.03.2013 11:16 2,7 C 54 % 1018,4 hPa 0,0 l/m 9,7 km/h (2 Bft) S 180 -5,7 C -0,0 C
16.03.2013 11:21 2,7 C 53 % 1018,3 hPa 0,0 l/m 5,4 km/h (1 Bft) SO 135 -5,9 C 1,3 C
16.03.2013 11:26 2,8 C 53 % 1018,2 hPa 0,0 l/m 4,0 km/h (1 Bft) S-SW 202 -5,8 C 2,8 C
16.03.2013 11:31 3,0 C 54 % 1018,2 hPa 0,0 l/m 7,6 km/h (2 Bft) S-SO 157 -5,4 C 0,9 C
16.03.2013 11:36 3,3 C 53 % 1018,1 hPa 0,0 l/m 11,5 km/h (2 Bft) S 180 -5,3 C 0,3 C
16.03.2013 11:41 3,5 C 53 % 1018,0 hPa 0,0 l/m 4,7 km/h (1 Bft) S-SO 157 -5,2 C 2,5 C
16.03.2013 11:46 3,6 C 53 % 1018,0 hPa 0,0 l/m 6,1 km/h (2 Bft) SO 135 -5,1 C 2,1 C
16.03.2013 11:51 3,7 C 53 % 1018,0 hPa 0,0 l/m 11,5 km/h (2 Bft) SO 135 -5,0 C 0,8 C
16.03.2013 11:56 3,6 C 53 % 1017,9 hPa 0,0 l/m 14,8 km/h (3 Bft) S-SO 157 -5,1 C 0,1 C
16.03.2013 12:01 3,3 C 53 % 1017,9 hPa 0,0 l/m 2,5 km/h (1 Bft) SO 135 -5,3 C 3,3 C
16.03.2013 12:06 3,3 C 55 % 1017,9 hPa 0,0 l/m 16,9 km/h (3 Bft) S-SO 157 -4,9 C -0,6 C
16.03.2013 12:11 3,3 C 54 % 1017,9 hPa 0,0 l/m 4,3 km/h (1 Bft) O 90 -5,1 C 3,3 C
16.03.2013 12:16 3,4 C 54 % 1017,7 hPa 0,0 l/m 2,9 km/h (1 Bft) SO 135 -5,0 C 3,4 C
16.03.2013 12:21 3,6 C 54 % 1017,9 hPa 0,0 l/m 6,5 km/h (2 Bft) SO 135 -4,8 C 1,9 C
16.03.2013 12:26 3,6 C 53 % 1017,9 hPa 0,0 l/m 6,1 km/h (2 Bft) S-SO 157 -5,1 C 2,1 C
16.03.2013 12:31 3,5 C 53 % 1017,9 hPa 0,0 l/m 25,2 km/h (4 Bft) O-SO 112 -5,2 C -1,4 C
16.03.2013 12:36 3,3 C 53 % 1017,9 hPa 0,0 l/m 4,7 km/h (1 Bft) O 90 -5,3 C 2,3 C
16.03.2013 12:41 3,3 C 53 % 1017,9 hPa 0,0 l/m 3,2 km/h (1 Bft) SO 135 -5,3 C 3,3 C
16.03.2013 12:46 3,4 C 53 % 1017,8 hPa 0,0 l/m 7,2 km/h (2 Bft) SO 135 -5,3 C 1,5 C
16.03.2013 12:51 3,4 C 52 % 1017,8 hPa 0,0 l/m 7,6 km/h (2 Bft) SO 135 -5,5 C 1,4 C
16.03.2013 12:56 3,3 C 53 % 1017,7 hPa 0,0 l/m 3,2 km/h (1 Bft) SO 135 -5,3 C 3,3 C
16.03.2013 13:01 3,5 C 53 % 1017,7 hPa 0,0 l/m 7,9 km/h (2 Bft) S-SO 157 -5,2 C 1,4 C
16.03.2013 13:06 3,6 C 53 % 1017,6 hPa 0,0 l/m 14,4 km/h (3 Bft) S-SO 157 -5,1 C 0,1 C
16.03.2013 13:11 3,9 C 53 % 1017,6 hPa 0,0 l/m 5,4 km/h (1 Bft) S 180 -4,8 C 2,7 C
16.03.2013 13:16 4,1 C 51 % 1017,7 hPa 0,0 l/m 12,6 km/h (3 Bft) S 180 -5,1 C 1,1 C
16.03.2013 13:21 4,2 C 51 % 1017,6 hPa 0,0 l/m 15,5 km/h (3 Bft) SO 135 -5,0 C 0,7 C
16.03.2013 13:26 4,3 C 50 % 1017,5 hPa 0,0 l/m 12,2 km/h (2 Bft) SO 135 -5,2 C 1,4 C
16.03.2013 13:31 4,2 C 50 % 1017,5 hPa 0,0 l/m 9,4 km/h (2 Bft) SO 135 -5,3 C 1,8 C
16.03.2013 13:36 4,1 C 49 % 1017,2 hPa 0,0 l/m 16,6 km/h (3 Bft) S-SO 157 -5,6 C 0,4 C
16.03.2013 13:41 4,1 C 50 % 1017,3 hPa 0,0 l/m 12,2 km/h (2 Bft) S-SO 157 -5,4 C 1,1 C
16.03.2013 13:46 4,0 C 50 % 1017,3 hPa 0,0 l/m 12,6 km/h (3 Bft) SO 135 -5,5 C 0,9 C
16.03.2013 13:51 3,9 C 50 % 1017,4 hPa 0,0 l/m 20,2 km/h (4 Bft) SO 135 -5,6 C -0,3 C
16.03.2013 13:56 4,0 C 50 % 1017,3 hPa 0,0 l/m 13,3 km/h (3 Bft) S-SO 157 -5,5 C 0,8 C
16.03.2013 14:01 4,1 C 49 % 1017,2 hPa 0,0 l/m 9,7 km/h (2 Bft) S-SO 157 -5,6 C 1,7 C
16.03.2013 14:06 4,1 C 49 % 1017,3 hPa 0,0 l/m 16,6 km/h (3 Bft) S-SO 157 -5,6 C 0,4 C
16.03.2013 14:11 4,1 C 49 % 1017,1 hPa 0,0 l/m 15,8 km/h (3 Bft) SO 135 -5,6 C 0,5 C
16.03.2013 14:16 4,0 C 49 % 1017,1 hPa 0,0 l/m 14,0 km/h (3 Bft) S-SO 157 -5,7 C 0,7 C
16.03.2013 14:21 4,1 C 49 % 1017,1 hPa 0,0 l/m 7,6 km/h (2 Bft) SO 135 -5,6 C 2,2 C
16.03.2013 14:26 4,2 C 49 % 1017,1 hPa 0,0 l/m 11,2 km/h (2 Bft) SO 135 -5,5 C 1,4 C
16.03.2013 14:31 4,4 C 49 % 1017,1 hPa 0,0 l/m 10,4 km/h (2 Bft) SO 135 -5,4 C 1,9 C
16.03.2013 14:36 4,5 C 49 % 1017,0 hPa 0,0 l/m 2,9 km/h (1 Bft) N-NO 22 -5,3 C 4,5 C
16.03.2013 14:41 4,6 C 47 % 1017,1 hPa 0,0 l/m 10,8 km/h (2 Bft) S-SO 157 -5,7 C 2,0 C
16.03.2013 14:46 4,6 C 46 % 1017,1 hPa 0,0 l/m 9,7 km/h (2 Bft) NO 45 -6,0 C 2,2 C
16.03.2013 14:51 4,5 C 46 % 1017,1 hPa 0,0 l/m 11,9 km/h (2 Bft) SO 135 -6,1 C 1,7 C
16.03.2013 14:56 4,6 C 46 % 1016,9 hPa 0,0 l/m 9,4 km/h (2 Bft) S 180 -6,0 C 2,3 C
16.03.2013 15:01 4,7 C 46 % 1016,8 hPa 0,0 l/m 20,2 km/h (4 Bft) S-SO 157 -5,9 C 0,7 C
16.03.2013 15:06 4,6 C 46 % 1016,9 hPa 0,0 l/m 7,6 km/h (2 Bft) S-SO 157 -6,0 C 2,8 C
16.03.2013 15:11 4,5 C 46 % 1016,9 hPa 0,0 l/m 8,6 km/h (2 Bft) SO 135 -6,1 C 2,4 C
16.03.2013 15:16 4,4 C 45 % 1016,8 hPa 0,0 l/m 7,9 km/h (2 Bft) S-SO 157 -6,5 C 2,5 C
16.03.2013 15:21 4,3 C 45 % 1016,8 hPa 0,0 l/m 18,0 km/h (3 Bft) S 180 -6,6 C 0,4 C
16.03.2013 15:26 4,3 C 46 % 1016,6 hPa 0,0 l/m 14,8 km/h (3 Bft) SO 135 -6,3 C 0,9 C
16.03.2013 15:31 4,3 C 45 % 1016,7 hPa 0,0 l/m 16,6 km/h (3 Bft) SO 135 -6,6 C 0,6 C
16.03.2013 15:36 4,3 C 44 % 1016,7 hPa 0,0 l/m 16,6 km/h (3 Bft) SO 135 -6,9 C 0,6 C
16.03.2013 15:41 4,2 C 44 % 1016,6 hPa 0,0 l/m 11,5 km/h (2 Bft) SO 135 -6,9 C 1,4 C
16.03.2013 15:46 4,2 C 44 % 1016,5 hPa 0,0 l/m 13,7 km/h (3 Bft) S-SO 157 -6,9 C 1,0 C
16.03.2013 15:51 4,2 C 44 % 1016,4 hPa 0,0 l/m 14,8 km/h (3 Bft) SO 135 -6,9 C 0,8 C
16.03.2013 15:56 4,2 C 44 % 1016,4 hPa 0,0 l/m 9,0 km/h (2 Bft) S-SO 157 -6,9 C 1,9 C
16.03.2013 16:01 4,2 C 44 % 1016,3 hPa 0,0 l/m 7,9 km/h (2 Bft) SO 135 -6,9 C 2,2 C
16.03.2013 16:06 4,1 C 43 % 1016,3 hPa 0,0 l/m 16,9 km/h (3 Bft) O-SO 112 -7,3 C 0,3 C
16.03.2013 16:11 3,9 C 44 % 1016,1 hPa 0,0 l/m 16,9 km/h (3 Bft) SO 135 -7,2 C 0,1 C
16.03.2013 16:16 3,9 C 44 % 1016,1 hPa 0,0 l/m 10,8 km/h (2 Bft) S 180 -7,2 C 1,2 C
16.03.2013 16:21 3,9 C 45 % 1016,2 hPa 0,0 l/m 10,8 km/h (2 Bft) O-SO 112 -6,9 C 1,2 C
16.03.2013 16:26 3,8 C 44 % 1016,3 hPa 0,0 l/m 8,3 km/h (2 Bft) S-SO 157 -7,3 C 1,6 C
16.03.2013 16:31 3,7 C 44 % 1016,1 hPa 0,0 l/m 9,7 km/h (2 Bft) O-SO 112 -7,4 C 1,2 C
16.03.2013 16:36 3,6 C 44 % 1016,1 hPa 0,0 l/m 13,3 km/h (3 Bft) SO 135 -7,5 C 0,3 C
16.03.2013 16:41 3,5 C 43 % 1016,2 hPa 0,0 l/m 8,3 km/h (2 Bft) SO 135 -7,9 C 1,3 C
16.03.2013 16:46 3,3 C 43 % 1016,1 hPa 0,0 l/m 3,2 km/h (1 Bft) S-SO 157 -8,1 C 3,3 C
16.03.2013 16:51 3,3 C 44 % 1016,2 hPa 0,0 l/m 22,7 km/h (4 Bft) SO 135 -7,8 C -1,4 C
16.03.2013 16:56 3,1 C 45 % 1016,1 hPa 0,0 l/m 5,4 km/h (1 Bft) S-SO 157 -7,7 C 1,8 C
16.03.2013 17:01 2,9 C 46 % 1016,3 hPa 0,0 l/m 12,2 km/h (2 Bft) S-SO 157 -7,6 C -0,3 C
16.03.2013 17:06 2,9 C 45 % 1016,0 hPa 0,0 l/m 7,6 km/h (2 Bft) S-SO 157 -7,8 C 0,8 C
16.03.2013 17:11 2,8 C 46 % 1016,1 hPa 0,0 l/m 17,3 km/h (3 Bft) SO 135 -7,6 C -1,3 C
16.03.2013 17:16 2,6 C 46 % 1016,1 hPa 0,0 l/m 10,4 km/h (2 Bft) S-SO 157 -7,8 C -0,3 C
16.03.2013 17:21 2,5 C 46 % 1015,9 hPa 0,0 l/m 14,8 km/h (3 Bft) S-SO 157 -7,9 C -1,3 C
16.03.2013 17:26 2,4 C 47 % 1015,8 hPa 0,0 l/m 14,4 km/h (3 Bft) S 180 -7,7 C -1,4 C
16.03.2013 17:31 2,2 C 47 % 1015,8 hPa 0,0 l/m 8,6 km/h (2 Bft) SO 135 -7,9 C -0,3 C
16.03.2013 17:36 2,1 C 48 % 1015,7 hPa 0,0 l/m 4,3 km/h (1 Bft) SO 135 -7,7 C 2,1 C
16.03.2013 17:41 1,9 C 48 % 1015,7 hPa 0,0 l/m 10,1 km/h (2 Bft) S-SO 157 -7,9 C -1,1 C
16.03.2013 17:46 1,8 C 48 % 1015,7 hPa 0,0 l/m 8,6 km/h (2 Bft) SO 135 -8,0 C -0,8 C
16.03.2013 17:51 1,7 C 48 % 1015,9 hPa 0,0 l/m 8,6 km/h (2 Bft) S 180 -8,1 C -0,9 C
16.03.2013 17:56 1,6 C 49 % 1015,8 hPa 0,0 l/m 11,2 km/h (2 Bft) SO 135 -7,9 C -1,7 C
16.03.2013 18:01 1,5 C 49 % 1015,9 hPa 0,0 l/m 7,9 km/h (2 Bft) SO 135 -8,0 C -0,9 C
16.03.2013 18:06 1,3 C 49 % 1015,9 hPa 0,0 l/m 3,6 km/h (1 Bft) S-SO 157 -8,2 C 1,3 C
16.03.2013 18:11 1,3 C 49 % 1016,0 hPa 0,0 l/m 8,6 km/h (2 Bft) SO 135 -8,2 C -1,4 C
16.03.2013 18:16 1,3 C 49 % 1016,0 hPa 0,0 l/m 10,8 km/h (2 Bft) S-SO 157 -8,2 C -2,0 C
16.03.2013 18:21 1,2 C 49 % 1016,1 hPa 0,0 l/m 7,9 km/h (2 Bft) SO 135 -8,3 C -1,3 C
16.03.2013 18:26 1,0 C 49 % 1016,1 hPa 0,0 l/m 16,2 km/h (3 Bft) S-SO 157 -8,5 C -3,4 C
16.03.2013 18:31 0,9 C 49 % 1016,1 hPa 0,0 l/m 9,7 km/h (2 Bft) S-SO 157 -8,6 C -2,2 C
16.03.2013 18:36 0,9 C 49 % 1016,0 hPa 0,0 l/m 9,4 km/h (2 Bft) SO 135 -8,6 C -2,1 C
16.03.2013 18:41 0,8 C 49 % 1015,9 hPa 0,0 l/m 10,1 km/h (2 Bft) S-SO 157 -8,7 C -2,4 C
16.03.2013 18:46 0,8 C 49 % 1015,9 hPa 0,0 l/m 5,8 km/h (2 Bft) S-SO 157 -8,7 C -1,0 C
16.03.2013 18:51 0,6 C 49 % 1015,9 hPa 0,0 l/m 6,8 km/h (2 Bft) S-SO 157 -8,9 C -1,6 C
16.03.2013 18:56 0,5 C 49 % 1016,1 hPa 0,0 l/m 11,9 km/h (2 Bft) SO 135 -9,0 C -3,2 C
16.03.2013 19:01 0,4 C 49 % 1016,1 hPa 0,0 l/m 12,2 km/h (2 Bft) S-SO 157 -9,0 C -3,4 C
16.03.2013 19:06 0,4 C 50 % 1016,0 hPa 0,0 l/m 10,4 km/h (2 Bft) S-SO 157 -8,8 C -2,9 C
16.03.2013 19:11 0,4 C 50 % 1016,0 hPa 0,5 l/m 5,4 km/h (1 Bft) SO 135 -8,8 C -1,3 C
16.03.2013 19:16 0,4 C 50 % 1016,0 hPa 0,0 l/m 7,9 km/h (2 Bft) SO 135 -8,8 C -2,2 C
16.03.2013 19:21 0,4 C 50 % 1016,1 hPa 0,0 l/m 6,1 km/h (2 Bft) S-SO 157 -8,8 C -1,6 C
16.03.2013 19:26 0,3 C 50 % 1016,0 hPa 0,0 l/m 6,5 km/h (2 Bft) S 180 -8,9 C -1,9 C
16.03.2013 19:31 0,3 C 50 % 1016,0 hPa 0,0 l/m 4,7 km/h (1 Bft) S-SO 157 -8,9 C -1,1 C
16.03.2013 19:36 0,2 C 50 % 1016,0 hPa 0,0 l/m 8,6 km/h (2 Bft) S-SO 157 -9,0 C -2,7 C
16.03.2013 19:41 0,2 C 50 % 1015,9 hPa 0,0 l/m 5,8 km/h (2 Bft) SO 135 -9,0 C -1,7 C
16.03.2013 19:46 0,2 C 51 % 1016,0 hPa 0,0 l/m 4,7 km/h (1 Bft) SO 135 -8,7 C -1,2 C
16.03.2013 19:51 0,1 C 51 % 1016,0 hPa 0,0 l/m 8,3 km/h (2 Bft) SO 135 -8,8 C -2,7 C
16.03.2013 19:56 -0,2 C 52 % 1015,9 hPa 0,0 l/m 5,8 km/h (2 Bft) S-SO 157 -8,8 C -2,2 C
16.03.2013 20:01 -0,6 C 54 % 1015,9 hPa 0,0 l/m 6,1 km/h (2 Bft) O-SO 112 -8,7 C -2,8 C
16.03.2013 20:06 -0,8 C 55 % 1015,7 hPa 0,0 l/m 8,6 km/h (2 Bft) SO 135 -8,7 C -3,9 C
16.03.2013 20:11 -1,1 C 56 % 1015,7 hPa 0,0 l/m 10,1 km/h (2 Bft) S-SO 157 -8,7 C -4,7 C
16.03.2013 20:16 -1,1 C 56 % 1015,8 hPa 0,0 l/m 12,2 km/h (2 Bft) SO 135 -8,7 C -5,2 C
16.03.2013 20:21 -1,3 C 58 % 1015,8 hPa 0,0 l/m 2,2 km/h (1 Bft) SO 135 -8,5 C -1,3 C
16.03.2013 20:26 -1,4 C 58 % 1015,7 hPa 0,0 l/m 6,1 km/h (2 Bft) O-SO 112 -8,6 C -3,7 C
16.03.2013 20:31 -1,6 C 59 % 1015,6 hPa 0,0 l/m 8,3 km/h (2 Bft) SO 135 -8,5 C -4,7 C
16.03.2013 20:36 -1,6 C 59 % 1015,6 hPa 0,0 l/m 7,2 km/h (2 Bft) O-SO 112 -8,5 C -4,3 C
16.03.2013 20:41 -1,7 C 60 % 1015,5 hPa 0,0 l/m 14,4 km/h (3 Bft) SO 135 -8,4 C -6,4 C
16.03.2013 20:46 -1,6 C 61 % 1015,6 hPa 0,0 l/m 7,2 km/h (2 Bft) O 90 -8,1 C -4,3 C
16.03.2013 20:51 -1,6 C 61 % 1015,4 hPa 0,0 l/m 10,4 km/h (2 Bft) S 180 -8,1 C -5,3 C
16.03.2013 20:56 -1,6 C 62 % 1015,4 hPa 0,0 l/m 8,3 km/h (2 Bft) SO 135 -7,9 C -4,7 C
16.03.2013 21:01 -1,5 C 62 % 1015,4 hPa 0,0 l/m 10,8 km/h (2 Bft) SO 135 -7,8 C -5,3 C
16.03.2013 21:06 -1,5 C 62 % 1015,5 hPa 0,0 l/m 12,2 km/h (2 Bft) SO 135 -7,8 C -5,7 C
16.03.2013 21:11 -1,5 C 63 % 1015,1 hPa 0,0 l/m 11,2 km/h (2 Bft) SO 135 -7,6 C -5,4 C
16.03.2013 21:16 -1,4 C 63 % 1015,0 hPa 0,0 l/m 9,4 km/h (2 Bft) SO 135 -7,5 C -4,8 C
16.03.2013 21:21 -1,4 C 63 % 1015,1 hPa 0,0 l/m 7,2 km/h (2 Bft) S-SO 157 -7,5 C -4,1 C
16.03.2013 21:26 -1,3 C 63 % 1015,1 hPa 0,0 l/m 11,2 km/h (2 Bft) O 90 -7,4 C -5,2 C
16.03.2013 21:31 -1,3 C 63 % 1015,1 hPa 0,0 l/m 5,8 km/h (2 Bft) S-SO 157 -7,4 C -3,4 C
16.03.2013 21:36 -1,3 C 63 % 1015,0 hPa 0,0 l/m 11,2 km/h (2 Bft) SO 135 -7,4 C -5,2 C
16.03.2013 21:41 -1,3 C 63 % 1015,0 hPa 0,0 l/m 12,6 km/h (3 Bft) SO 135 -7,4 C -5,5 C
16.03.2013 21:46 -1,4 C 63 % 1014,8 hPa 0,0 l/m 8,6 km/h (2 Bft) S-SO 157 -7,5 C -4,6 C
16.03.2013 21:51 -1,3 C 63 % 1014,8 hPa 0,0 l/m 10,8 km/h (2 Bft) S-SO 157 -7,4 C -5,1 C
16.03.2013 21:56 -1,3 C 63 % 1014,8 hPa 0,0 l/m 15,5 km/h (3 Bft) S-SO 157 -7,4 C -6,1 C
16.03.2013 22:01 -1,3 C 63 % 1014,9 hPa 0,0 l/m 7,2 km/h (2 Bft) SO 135 -7,4 C -4,0 C
16.03.2013 22:06 -1,3 C 63 % 1014,9 hPa 0,0 l/m 9,4 km/h (2 Bft) S-SO 157 -7,4 C -4,7 C
16.03.2013 22:11 -1,3 C 63 % 1014,9 hPa 0,0 l/m 8,6 km/h (2 Bft) SO 135 -7,4 C -4,5 C
16.03.2013 22:16 -1,3 C 63 % 1014,9 hPa 0,0 l/m 14,4 km/h (3 Bft) S-SO 157 -7,4 C -5,9 C
16.03.2013 22:21 -1,3 C 63 % 1014,9 hPa 0,0 l/m 4,0 km/h (1 Bft) O 90 -7,4 C -1,3 C
16.03.2013 22:26 -1,3 C 63 % 1014,8 hPa 0,0 l/m 7,2 km/h (2 Bft) SO 135 -7,4 C -4,0 C
16.03.2013 22:31 -1,3 C 63 % 1014,9 hPa 0,0 l/m 6,1 km/h (2 Bft) S-SO 157 -7,4 C -3,6 C
16.03.2013 22:36 -1,2 C 63 % 1014,9 hPa 0,0 l/m 4,0 km/h (1 Bft) SO 135 -7,3 C -1,2 C
16.03.2013 22:41 -1,3 C 64 % 1014,9 hPa 0,0 l/m 9,7 km/h (2 Bft) SO 135 -7,2 C -4,8 C
16.03.2013 22:46 -1,3 C 64 % 1014,9 hPa 0,0 l/m 10,1 km/h (2 Bft) S-SO 157 -7,2 C -4,9 C
16.03.2013 22:51 -1,3 C 64 % 1015,0 hPa 0,0 l/m 3,6 km/h (1 Bft) SO 135 -7,2 C -1,3 C
16.03.2013 22:56 -1,4 C 64 % 1014,8 hPa 0,0 l/m 8,6 km/h (2 Bft) O 90 -7,3 C -4,6 C
16.03.2013 23:01 -1,3 C 65 % 1014,9 hPa 0,0 l/m 3,6 km/h (1 Bft) SO 135 -7,0 C -1,3 C
16.03.2013 23:06 -1,4 C 65 % 1014,9 hPa 0,0 l/m 5,0 km/h (1 Bft) SO 135 -7,1 C -3,2 C
16.03.2013 23:11 -1,4 C 65 % 1014,8 hPa 0,0 l/m 6,1 km/h (2 Bft) O-SO 112 -7,1 C -3,7 C
16.03.2013 23:16 -1,4 C 66 % 1014,9 hPa 0,0 l/m 9,7 km/h (2 Bft) SO 135 -6,9 C -4,9 C
16.03.2013 23:21 -1,4 C 66 % 1014,8 hPa 0,0 l/m 10,1 km/h (2 Bft) S-SO 157 -6,9 C -5,0 C
16.03.2013 23:26 -1,4 C 66 % 1014,7 hPa 0,0 l/m 5,4 km/h (1 Bft) O 90 -6,9 C -3,4 C
16.03.2013 23:31 -1,5 C 66 % 1014,8 hPa 0,0 l/m 4,3 km/h (1 Bft) S-SO 157 -7,0 C -1,5 C
16.03.2013 23:36 -1,4 C 66 % 1014,7 hPa 0,0 l/m 10,8 km/h (2 Bft) O-SO 112 -6,9 C -5,2 C
16.03.2013 23:41 -1,5 C 66 % 1014,8 hPa 0,0 l/m 14,8 km/h (3 Bft) SO 135 -7,0 C -6,2 C
16.03.2013 23:46 -1,5 C 66 % 1014,7 hPa 0,0 l/m 6,5 km/h (2 Bft) S-SO 157 -7,0 C -4,0 C
16.03.2013 23:51 -1,4 C 67 % 1014,7 hPa 0,0 l/m 7,6 km/h (2 Bft) SO 135 -6,7 C -4,2 C
16.03.2013 23:56 -1,4 C 67 % 1014,7 hPa 0,0 l/m 5,8 km/h (2 Bft) O-SO 112 -6,7 C -3,5 C
_ Min-Zeit 05:56 16:06 23:26 - 00:11 - - 05:56 05:41
Minimum _ -9,5 C 43 % 1014,7 hPa - 0,0 km/h (0 Bft) - - -11,5 C -12,8 C
_ Max-Zeit 15:01 04:21 07:21 19:11 12:31 - - 13:11 14:36
Maximum _ 4,7 C 85 % 1019,1 hPa 0,5 l/m 25,2 km/h
O-SO (4 Bft)
- - -4,8 C 4,5 C
Durchschnitt _ -2,2 C 66 % 1017,4 hPa #0,5 l/m 6,6 km/h (2 Bft) SO - -8,2 C -4,0 C
(c) by David Heller